Terminal Aerodrome Forecast
Issued by NWS Wilmington, OH

Current Version | Previous Version | Text Only | Print | Product List | Glossary Off
Versions: 1 2 3 4 5 6 7 8 9 10 11 12 13 14 15 16 17 18 19 20

302
FTUS41 KILN 142044 AAA
TAFCMH
TAF AMD
KCMH 142044Z 1421/1518 36004KT P6SM SCT025 BKN200
     FM150200 VRB03KT P6SM BKN150
     FM151000 20004KT P6SM SCT040 OVC150
     FM151300 22008KT P6SM BKN035
     FM151600 24012G18KT P6SM BKN025=

USA.gov is the U.S. government's official web portal to all federal, state and local government web resources and services.